Time;durP1;ratioP1;P1;durP2;ratioP2;P2;SDS_P1;SDS_P2;PMS_P1;PMS_P2;Temp;Humidity;BMP_temperature;BMP_pressure;BME280_temperature;BME280_humidity;BME280_pressure;Samples;Min_cycle;Max_cycle;Signal;HPM_P1;HPM_P2
2021/07/28 00:07:18;;;;;;;0.80;0.63;;;23.00;99.90;;;;;;20775454;28;20234;-67
2021/07/28 00:17:23;;;;;;;1.73;0.97;;;22.90;99.90;;;;;;20786811;28;20202;-69
2021/07/28 00:27:28;;;;;;;1.07;0.97;;;22.90;99.90;;;;;;20792531;28;20253;-68
2021/07/28 00:37:34;;;;;;;0.83;0.63;;;22.80;99.90;;;;;;20789771;28;20201;-67
2021/07/28 00:47:38;;;;;;;0.90;0.90;;;22.70;99.90;;;;;;20784649;28;20240;-69
2021/07/28 00:57:43;;;;;;;4.10;0.93;;;22.60;99.90;;;;;;20789785;28;20200;-69
2021/07/28 01:07:47;;;;;;;1.37;1.07;;;22.60;99.90;;;;;;20800505;22;20234;-66
2021/07/28 01:17:52;;;;;;;1.10;0.93;;;22.50;99.90;;;;;;20765573;28;20194;-67
2021/07/28 01:27:58;;;;;;;1.67;1.07;;;22.50;99.90;;;;;;20783915;28;20226;-66
2021/07/28 01:38:02;;;;;;;1.80;1.43;;;22.50;99.90;;;;;;20783399;28;20210;-66
2021/07/28 01:48:07;;;;;;;3.73;1.73;;;22.50;99.90;;;;;;20781980;28;20284;-66
2021/07/28 01:58:12;;;;;;;1.80;1.10;;;22.50;99.90;;;;;;20782868;28;20244;-66
2021/07/28 02:08:18;;;;;;;1.23;1.13;;;22.60;99.90;;;;;;20780085;28;20230;-65
2021/07/28 02:18:22;;;;;;;0.63;0.33;;;22.50;99.90;;;;;;20781836;28;20237;-66
2021/07/28 02:28:26;;;;;;;1.87;1.30;;;22.50;99.90;;;;;;20776676;28;20575;-64
2021/07/28 02:38:30;;;;;;;1.13;0.70;;;22.50;99.90;;;;;;20778070;28;20200;-65
2021/07/28 02:48:35;;;;;;;1.60;1.03;;;22.50;99.90;;;;;;20777244;28;20696;-66
2021/07/28 02:58:39;;;;;;;1.33;0.77;;;22.50;99.90;;;;;;20779670;28;20198;-66
2021/07/28 03:08:44;;;;;;;1.30;1.00;;;22.50;99.90;;;;;;20794817;22;20234;-68
2021/07/28 03:18:47;;;;;;;3.13;0.97;;;22.60;99.90;;;;;;20777653;28;20209;-70
2021/07/28 03:28:53;;;;;;;1.27;0.97;;;22.50;99.90;;;;;;20776754;28;20576;-69
2021/07/28 03:38:56;;;;;;;0.83;0.50;;;22.50;99.90;;;;;;20776948;28;20260;-68
2021/07/28 03:49:01;;;;;;;1.80;1.70;;;22.50;99.90;;;;;;20786568;28;20240;-66
2021/07/28 03:59:05;;;;;;;1.63;0.67;;;22.60;99.90;;;;;;20793617;28;20194;-67
2021/07/28 04:09:10;;;;;;;3.87;2.10;;;22.70;99.90;;;;;;20792603;28;20244;-67
2021/07/28 04:19:14;;;;;;;1.17;1.07;;;22.90;99.90;;;;;;20790980;28;20555;-67
2021/07/28 04:29:19;;;;;;;0.83;0.80;;;23.10;99.90;;;;;;20789617;28;20217;-67
2021/07/28 04:39:23;;;;;;;1.30;1.20;;;23.00;99.90;;;;;;20768858;28;20199;-69
2021/07/28 04:49:29;;;;;;;1.43;0.70;;;22.90;99.90;;;;;;20791106;28;20237;-68
2021/07/28 04:59:32;;;;;;;1.00;0.90;;;23.00;99.90;;;;;;20787471;28;20637;-68
2021/07/28 05:09:38;;;;;;;0.50;0.50;;;23.10;99.90;;;;;;20795913;28;20262;-68
2021/07/28 05:19:42;;;;;;;2.87;1.80;;;23.10;99.90;;;;;;20787089;28;20659;-67
2021/07/28 05:29:47;;;;;;;0.90;0.80;;;23.20;99.90;;;;;;20785676;28;20288;-68
2021/07/28 05:39:51;;;;;;;1.77;1.55;;;24.40;99.90;;;;;;20785300;28;20198;-68
2021/07/28 05:49:58;;;;;;;1.35;1.13;;;24.60;99.90;;;;;;20785710;28;20218;-67
2021/07/28 06:00:01;;;;;;;1.33;1.13;;;24.60;99.90;;;;;;20765859;28;20222;-68
2021/07/28 06:10:08;;;;;;;1.30;1.08;;;24.80;99.90;;;;;;20782035;28;20646;-67
2021/07/28 06:20:12;;;;;;;1.15;0.73;;;24.70;99.90;;;;;;20785508;28;20213;-66
2021/07/28 06:30:18;;;;;;;0.60;0.60;;;24.80;99.90;;;;;;20769933;28;20245;-67
2021/07/28 06:40:22;;;;;;;1.52;1.42;;;24.80;99.90;;;;;;20776200;28;20456;-67
2021/07/28 06:50:27;;;;;;;0.77;0.63;;;25.00;99.90;;;;;;20776169;28;20471;-67
2021/07/28 07:00:32;;;;;;;0.90;0.75;;;25.20;99.90;;;;;;20773623;28;20218;-68
2021/07/28 07:10:39;;;;;;;1.73;1.20;;;25.30;99.90;;;;;;20753637;28;20218;-68
2021/07/28 07:20:42;;;;;;;2.13;1.92;;;25.50;99.90;;;;;;20755569;28;20208;-67
2021/07/28 07:30:50;;;;;;;5.40;1.65;;;25.50;99.90;;;;;;20755573;28;20230;-70
2021/07/28 07:40:54;;;;;;;0.82;0.73;;;25.60;99.90;;;;;;20762205;28;20581;-67
2021/07/28 07:50:59;;;;;;;3.63;1.67;;;25.90;99.90;;;;;;20768792;28;20232;-68
2021/07/28 08:01:07;;;;;;;2.40;2.20;;;26.00;99.90;;;;;;20764947;28;20230;-69
2021/07/28 08:11:14;;;;;;;2.78;1.50;;;26.10;99.90;;;;;;20771257;28;20938;-68
2021/07/28 08:21:18;;;;;;;11.82;1.92;;;26.40;99.90;;;;;;20752763;28;20307;-67
2021/07/28 08:31:23;;;;;;;1.75;1.27;;;26.40;99.90;;;;;;20742025;28;20256;-67
2021/07/28 08:41:28;;;;;;;4.28;2.45;;;26.30;99.90;;;;;;20805288;28;20288;-67
2021/07/28 08:51:33;;;;;;;2.95;1.88;;;26.40;99.90;;;;;;20785909;28;20232;-67
2021/07/28 09:01:38;;;;;;;1.45;1.27;;;26.90;99.90;;;;;;20784657;28;20226;-66
2021/07/28 09:11:54;;;;;;;2.47;1.50;;;26.90;99.90;;;;;;20785596;28;20260;-65
2021/07/28 09:22:04;;;;;;;4.43;1.85;;;26.90;99.90;;;;;;20784091;28;20197;-66
2021/07/28 09:32:12;;;;;;;1.25;0.90;;;27.10;99.90;;;;;;20721628;28;20235;-67
2021/07/28 09:42:17;;;;;;;3.15;1.80;;;27.20;99.90;;;;;;20861288;28;20206;-64
2021/07/28 09:52:26;;;;;;;4.22;2.05;;;27.20;99.90;;;;;;20864398;28;20470;-67
2021/07/28 10:02:33;;;;;;;1.75;0.98;;;27.40;99.90;;;;;;20864922;28;20425;-66
2021/07/28 10:12:40;;;;;;;1.75;1.65;;;27.30;99.90;;;;;;20861869;28;20224;-66
2021/07/28 10:22:44;;;;;;;4.90;3.08;;;27.30;99.90;;;;;;20863199;28;20814;-64
2021/07/28 10:32:50;;;;;;;1.25;0.70;;;27.70;99.90;;;;;;20776167;28;20556;-65
2021/07/28 10:43:04;;;;;;;1.70;1.52;;;28.10;99.90;;;;;;20778381;28;20548;-65
2021/07/28 10:53:09;;;;;;;3.38;1.50;;;28.40;99.90;;;;;;20777259;28;20237;-66
2021/07/28 11:03:13;;;;;;;10.00;1.42;;;28.80;99.90;;;;;;20773439;28;20230;-68
2021/07/28 11:13:20;;;;;;;0.70;0.70;;;29.00;99.90;;;;;;20773044;28;20786;-65
2021/07/28 11:23:46;;;;;;;1.85;1.08;;;29.00;99.90;;;;;;20772641;28;20201;-67
2021/07/28 11:33:51;;;;;;;1.85;1.30;;;29.50;99.90;;;;;;20772606;28;20225;-68
2021/07/28 11:43:58;;;;;;;4.78;1.58;;;29.90;99.90;;;;;;20773616;28;20194;-67
2021/07/28 11:54:11;;;;;;;8.25;1.33;;;31.10;99.90;;;;;;20772195;28;20489;-68
2021/07/28 12:04:19;;;;;;;3.28;1.45;;;30.50;99.90;;;;;;20772310;28;20233;-67
2021/07/28 12:14:35;;;;;;;4.00;1.08;;;31.00;99.90;;;;;;20786832;28;20221;-68
2021/07/28 12:24:44;;;;;;;2.28;1.52;;;31.90;99.90;;;;;;20789487;28;20542;-66
2021/07/28 12:34:53;;;;;;;1.48;1.38;;;31.40;99.90;;;;;;20788222;28;20604;-66
2021/07/28 12:44:59;;;;;;;2.38;1.92;;;31.40;99.90;;;;;;20794664;28;20187;-69
2021/07/28 12:55:05;;;;;;;2.28;1.60;;;32.70;99.90;;;;;;20785243;28;20659;-66
2021/07/28 13:05:15;;;;;;;3.10;1.02;;;32.90;99.90;;;;;;20785582;28;20225;-67
2021/07/28 13:15:20;;;;;;;3.42;1.75;;;33.70;99.90;;;;;;20782340;28;20217;-67
2021/07/28 13:25:24;;;;;;;2.83;1.88;;;33.70;99.90;;;;;;20783456;28;20265;-72
2021/07/28 13:35:29;;;;;;;2.72;1.70;;;32.20;99.90;;;;;;20780716;28;20234;-66
2021/07/28 13:45:33;;;;;;;3.53;1.75;;;33.30;99.90;;;;;;20797972;28;20194;-64
2021/07/28 13:55:38;;;;;;;2.45;1.98;;;32.50;99.90;;;;;;20780775;28;20673;-68
2021/07/28 14:05:43;;;;;;;1.77;1.65;;;33.20;99.90;;;;;;20781407;28;20278;-66
2021/07/28 14:15:48;;;;;;;3.38;2.22;;;33.20;99.90;;;;;;20779741;28;20226;-67
2021/07/28 14:25:52;;;;;;;2.67;1.40;;;32.70;99.90;;;;;;20778463;28;20194;-67
2021/07/28 14:35:58;;;;;;;4.93;2.08;;;32.90;99.90;;;;;;20777354;28;20226;-67
2021/07/28 14:46:02;;;;;;;1.20;1.00;;;33.70;99.90;;;;;;20775989;28;20205;-67
2021/07/28 14:56:07;;;;;;;2.30;1.05;;;33.50;99.90;;;;;;20775100;28;20234;-67
2021/07/28 15:06:12;;;;;;;2.45;1.45;;;33.50;99.90;;;;;;20772529;28;20687;-65
2021/07/28 15:16:17;;;;;;;1.67;1.42;;;34.20;99.90;;;;;;20778137;28;20480;-67
2021/07/28 15:26:21;;;;;;;2.40;1.50;;;33.40;99.90;;;;;;20773710;28;20264;-66
2021/07/28 15:36:27;;;;;;;13.43;2.17;;;32.70;99.90;;;;;;20773203;28;20225;-69
2021/07/28 15:46:31;;;;;;;2.80;1.40;;;31.50;99.90;;;;;;20771658;28;20206;-69
2021/07/28 15:56:36;;;;;;;2.78;1.40;;;31.50;99.90;;;;;;20772435;28;20631;-69
2021/07/28 16:06:41;;;;;;;2.20;1.50;;;32.30;99.90;;;;;;20770769;28;20293;-70
2021/07/28 16:16:46;;;;;;;3.10;1.73;;;31.40;99.90;;;;;;20771880;28;20594;-68
2021/07/28 16:26:50;;;;;;;2.10;1.83;;;29.50;99.90;;;;;;20770409;28;20194;-71
2021/07/28 16:37:14;;;;;;;5.57;1.27;;;29.20;99.90;;;;;;20766425;28;20661;-69
2021/07/28 16:47:18;;;;;;;3.33;1.48;;;28.30;99.90;;;;;;20763252;28;20198;-68
2021/07/28 16:57:23;;;;;;;0.93;0.70;;;27.70;99.90;;;;;;20775189;28;20226;-69
2021/07/28 17:07:26;;;;;;;1.73;1.50;;;28.10;99.90;;;;;;20779346;28;20221;-68
2021/07/28 17:17:32;;;;;;;2.45;1.40;;;28.20;99.90;;;;;;20781386;28;20222;-66
2021/07/28 17:27:37;;;;;;;1.80;1.20;;;28.40;99.90;;;;;;20778770;28;20653;-70
2021/07/28 17:37:43;;;;;;;2.22;1.48;;;28.20;99.90;;;;;;20782713;28;20549;-71
2021/07/28 17:47:47;;;;;;;0.77;0.77;;;27.00;99.90;;;;;;20780208;28;20201;-71
2021/07/28 17:57:52;;;;;;;1.17;1.08;;;26.90;99.90;;;;;;20781441;28;20281;-70
2021/07/28 18:08:00;;;;;;;2.92;1.70;;;26.90;99.90;;;;;;20779105;28;20226;-69
2021/07/28 18:18:05;;;;;;;6.80;1.33;;;26.80;99.90;;;;;;20778526;28;20222;-68
2021/07/28 18:28:09;;;;;;;2.53;1.15;;;26.20;99.90;;;;;;20779367;28;20202;-67
2021/07/28 18:38:14;;;;;;;8.48;1.48;;;26.00;99.90;;;;;;20775981;28;20230;-70
2021/07/28 18:48:19;;;;;;;1.48;1.02;;;26.00;99.90;;;;;;20778411;28;20309;-68
2021/07/28 18:58:23;;;;;;;2.47;1.67;;;25.60;99.90;;;;;;20774740;28;20229;-67
2021/07/28 19:08:27;;;;;;;4.47;1.80;;;25.50;99.90;;;;;;20777366;28;20226;-67
2021/07/28 19:18:32;;;;;;;5.03;2.63;;;25.40;99.90;;;;;;20775082;28;20555;-66
2021/07/28 19:28:36;;;;;;;0.68;0.52;;;25.30;99.90;;;;;;20758848;28;20975;-68
2021/07/28 19:38:41;;;;;;;1.30;1.10;;;25.30;99.90;;;;;;20781412;28;20214;-68
2021/07/28 19:48:44;;;;;;;1.17;1.08;;;25.30;99.90;;;;;;20775941;28;20654;-67
2021/07/28 19:58:49;;;;;;;1.88;1.02;;;25.00;99.90;;;;;;20772625;28;20232;-68
2021/07/28 20:08:53;;;;;;;2.20;0.95;;;24.70;99.90;;;;;;20776034;28;20735;-67
2021/07/28 20:18:58;;;;;;;1.05;0.68;;;24.90;99.90;;;;;;20772900;28;20224;-67
2021/07/28 20:29:01;;;;;;;3.90;0.75;;;24.70;99.90;;;;;;20791115;28;20653;-69
2021/07/28 20:39:06;;;;;;;0.57;0.57;;;24.70;99.90;;;;;;20791240;28;20229;-67
2021/07/28 20:49:10;;;;;;;8.90;4.20;;;24.70;99.90;;;;;;20788969;28;20206;-69
2021/07/28 20:59:15;;;;;;;0.57;0.50;;;24.70;99.90;;;;;;20787796;28;20230;-67
2021/07/28 21:09:19;;;;;;;0.80;0.73;;;24.60;99.90;;;;;;20784525;28;20205;-69
2021/07/28 21:19:24;;;;;;;1.17;0.65;;;24.60;99.90;;;;;;20783264;28;20222;-67
2021/07/28 21:29:27;;;;;;;4.32;1.08;;;24.40;99.90;;;;;;20786615;28;20198;-69
2021/07/28 21:39:33;;;;;;;1.80;0.83;;;24.30;99.90;;;;;;20778950;28;20888;-69
2021/07/28 21:49:56;;;;;;;0.70;0.57;;;24.00;99.90;;;;;;20760214;28;20272;-68
2021/07/28 22:00:03;;;;;;;1.17;1.07;;;23.90;99.90;;;;;;20780579;28;20368;-68
2021/07/28 22:10:09;;;;;;;0.80;0.63;;;23.80;99.90;;;;;;20764218;28;20198;-67
2021/07/28 22:20:15;;;;;;;2.17;0.63;;;23.60;99.90;;;;;;20780939;28;20693;-68
2021/07/28 22:30:18;;;;;;;1.70;0.70;;;23.40;99.90;;;;;;20780319;28;20533;-69
2021/07/28 22:40:23;;;;;;;2.50;1.00;;;23.20;99.90;;;;;;20777348;28;20225;-69
2021/07/28 23:06:38;;;;;;;1.47;0.87;;;23.10;99.90;;;;;;20780563;28;20592;-68
2021/07/28 23:11:16;;;;;;;1.50;0.77;;;23.10;99.90;;;;;;20775856;28;20198;-70
2021/07/28 23:21:22;;;;;;;0.70;0.33;;;23.00;99.90;;;;;;20776993;28;20198;-69
2021/07/28 23:31:26;;;;;;;1.43;0.90;;;22.80;99.90;;;;;;20776272;28;20186;-68
2021/07/28 23:41:31;;;;;;;1.13;0.77;;;22.80;99.90;;;;;;20775647;28;20198;-68
2021/07/28 23:51:35;;;;;;;0.40;0.40;;;22.70;99.90;;;;;;20777206;28;20209;-69
